TimeMST,TemperatureF,Dew PointF,Humidity,Sea Level PressureIn,VisibilityMPH,Wind Direction,Wind SpeedMPH,Gust SpeedMPH,PrecipitationIn,Events,Conditions,WindDirDegrees,DateUTC
12:53 AM,54.0,35.1,49,30.03,10.0,SSE,9.2,-,N/A,,Overcast,150,2012-11-20 07:53:00
1:53 AM,55.0,34.0,45,30.00,10.0,South,20.7,26.5,N/A,,Overcast,170,2012-11-20 08:53:00
2:53 AM,54.0,34.0,47,30.02,10.0,SSE,9.2,-,N/A,,Overcast,160,2012-11-20 09:53:00
3:53 AM,53.1,35.1,50,30.01,10.0,SSE,11.5,-,0.00,,Overcast,160,2012-11-20 10:53:00
4:53 AM,51.1,37.0,59,30.02,10.0,SSE,10.4,-,0.01,Rain,Light Rain,160,2012-11-20 11:53:00
5:53 AM,48.9,37.9,66,30.04,10.0,Calm,Calm,-,0.00,Rain,Light Rain,0,2012-11-20 12:53:00
6:53 AM,51.1,37.9,61,30.05,10.0,SE,6.9,17.3,0.00,Rain,Light Rain,130,2012-11-20 13:53:00
7:53 AM,48.0,39.9,74,30.05,10.0,SSE,9.2,-,0.02,Rain,Light Rain,150,2012-11-20 14:53:00
8:53 AM,46.9,41.0,80,30.05,9.0,East,5.8,-,0.05,Rain,Light Rain,100,2012-11-20 15:53:00
9:53 AM,48.9,39.9,71,30.04,10.0,East,8.1,-,0.01,Rain,Light Rain,100,2012-11-20 16:53:00
10:53 AM,48.0,42.1,80,30.04,10.0,East,4.6,-,0.01,Rain,Light Rain,80,2012-11-20 17:53:00
12:53 PM,50.0,41.0,71,29.94,10.0,ENE,6.9,-,N/A,,Overcast,60,2012-11-20 19:53:00
1:53 PM,54.0,37.9,55,29.89,10.0,East,9.2,-,N/A,,Mostly Cloudy,100,2012-11-20 20:53:00
2:53 PM,55.9,36.0,47,29.88,10.0,East,5.8,20.7,N/A,,Overcast,100,2012-11-20 21:53:00
3:53 PM,51.1,41.0,68,29.88,10.0,East,8.1,-,N/A,,Clear,100,2012-11-20 22:53:00
4:53 PM,57.0,36.0,45,29.86,10.0,SSE,13.8,-,N/A,,Clear,160,2012-11-20 23:53:00
5:53 PM,55.9,35.1,45,29.86,10.0,SSE,13.8,-,N/A,,Mostly Cloudy,160,2012-11-21 00:53:00
6:53 PM,55.9,34.0,44,29.85,10.0,SSE,13.8,-,N/A,,Partly Cloudy,160,2012-11-21 01:53:00
7:53 PM,55.0,33.1,43,29.85,10.0,South,15.0,-,N/A,,Clear,170,2012-11-21 02:53:00
8:53 PM,52.0,33.1,49,29.86,10.0,South,12.7,-,N/A,,Clear,170,2012-11-21 03:53:00
9:53 PM,51.1,33.1,50,29.85,10.0,South,12.7,-,N/A,,Clear,170,2012-11-21 04:53:00
10:53 PM,53.1,32.0,45,29.83,10.0,South,13.8,-,N/A,,Scattered Clouds,170,2012-11-21 05:53:00
11:53 PM,54.0,30.9,41,29.79,10.0,South,20.7,28.8,N/A,,Clear,170,2012-11-21 06:53:00